Nearby METAR Reports

 

EGQL - Leuchars Raf, United Kingdom
Distance from station: SW 17km
Updated: 19/01/2020 03:50
Clear
Clear
 Wind from W
Wind: W 19 km/h
Temperature: 5°C
Wind Chill: 1°C
Dew Point: 3°C
Humidity: 87%
Barometer: 1041 hPa
Summary: Clear
Visibility: greater than 10 km
2020/01/19 11:50 EGQL 191150Z 26010KT CAVOK 05/03 Q1041 RMK BLU
EGPN - Dundee/Riverside, United Kingdom
Distance from station: WSW 20km
Updated: 19/01/2020 03:50
Clear
Clear
 Wind from WSW
Wind: WSW 15 km/h
Temperature: 5°C
Wind Chill: 2°C
Dew Point: 4°C
Humidity: 93%
Barometer: 1041 hPa
Summary: Clear
Visibility: greater than 10 km
2020/01/19 11:50 EGPN 191150Z 25008KT CAVOK 05/04 Q1041
 
EGPH - Edinburgh Airpor, United Kingdom
Distance from station: SSW 74km
Updated: 19/01/2020 03:50
Clear
Clear
 Wind from WSW
Wind: WSW 13 km/h
Temperature: 6°C
Wind Chill: 3°C
Dew Point: 4°C
Humidity: 87%
Barometer: 1042 hPa
Summary: Clear
Visibility: greater than 10 km
2020/01/19 11:50 EGPH 191150Z 24007KT CAVOK 06/04 Q1042
EGPD - Aberdeen/Dyce, United Kingdom
Distance from station: NNE 82km
Updated: 19/01/2020 03:20
Clear
Clear
 Wind from E
Wind: E 7 km/h
Temperature: 5°C
Wind Chill: 3°C
Dew Point: -2°C
Humidity: 61%
Barometer: 1039 hPa
Clouds: Clear
Visibility: 10 km
2020/01/19 11:20 EGPD 191120Z AUTO 10004KT 9999 NCD 05/M02 Q1039 NOSIG